Time;durP1;ratioP1;P1;durP2;ratioP2;P2;SDS_P1;SDS_P2;PMS_P1;PMS_P2;Temp;Humidity;BMP_temperature;BMP_pressure;BME280_temperature;BME280_humidity;BME280_pressure;Samples;Min_cycle;Max_cycle;Signal;HPM_P1;HPM_P2
2022/04/14 00:01:53;;;;;;;7.33;5.73;;;;;;;;;;5057882;28;20200;-78
2022/04/14 00:04:22;;;;;;;7.70;6.30;;;;;;;;;;5054213;28;20308;-76
2022/04/14 00:06:49;;;;;;;6.40;5.80;;;;;;;;;;5054583;28;20239;-78
2022/04/14 00:09:16;;;;;;;7.77;5.60;;;;;;;;;;5062565;28;20212;-78
2022/04/14 00:11:44;;;;;;;7.90;6.13;;;;;;;;;;5059638;28;20228;-78
2022/04/14 00:14:11;;;;;;;6.93;5.73;;;;;;;;;;5053325;28;20304;-78
2022/04/14 00:16:38;;;;;;;9.03;6.53;;;;;;;;;;5059962;28;20229;-78
2022/04/14 00:19:05;;;;;;;7.07;6.10;;;;;;;;;;5053819;28;20792;-78
2022/04/14 00:21:34;;;;;;;8.90;5.97;;;;;;;;;;5066099;28;20220;-78
2022/04/14 00:24:01;;;;;;;9.10;6.20;;;;;;;;;;5073953;28;20247;-78
2022/04/14 00:26:28;;;;;;;8.60;6.40;;;;;;;;;;5063428;28;20203;-78
2022/04/14 00:28:58;;;;;;;9.27;6.53;;;;;;;;;;5054961;28;20313;-78
2022/04/14 00:31:25;;;;;;;8.83;6.17;;;;;;;;;;5054332;28;20207;-77
2022/04/14 00:33:53;;;;;;;12.00;6.40;;;;;;;;;;5072042;22;20251;-79
2022/04/14 00:36:20;;;;;;;7.43;6.10;;;;;;;;;;5068574;28;20275;-76
2022/04/14 00:38:48;;;;;;;8.53;5.63;;;;;;;;;;5072106;28;20283;-79
2022/04/14 00:41:16;;;;;;;10.33;5.50;;;;;;;;;;5059641;28;20690;-79
2022/04/14 00:43:43;;;;;;;8.30;5.90;;;;;;;;;;5072843;28;20221;-78
2022/04/14 00:46:10;;;;;;;7.17;5.40;;;;;;;;;;5072589;28;20246;-79
2022/04/14 00:48:38;;;;;;;9.50;6.20;;;;;;;;;;5072999;28;20288;-77
2022/04/14 00:51:07;;;;;;;10.13;6.37;;;;;;;;;;5072959;28;20196;-78
2022/04/14 00:53:34;;;;;;;10.43;6.30;;;;;;;;;;5073138;28;20220;-79
2022/04/14 00:56:02;;;;;;;8.10;6.67;;;;;;;;;;5072670;28;20674;-79
2022/04/14 00:58:30;;;;;;;7.47;5.60;;;;;;;;;;5073345;28;20228;-79
2022/04/14 01:00:57;;;;;;;7.87;6.13;;;;;;;;;;5077151;28;20224;-79
2022/04/14 01:03:24;;;;;;;8.30;5.80;;;;;;;;;;5076895;28;20220;-79
2022/04/14 01:05:54;;;;;;;8.83;6.30;;;;;;;;;;5076898;28;20283;-79
2022/04/14 01:08:24;;;;;;;10.63;6.73;;;;;;;;;;5076693;28;20292;-79
2022/04/14 01:10:51;;;;;;;9.57;6.40;;;;;;;;;;5076220;28;20223;-78
2022/04/14 01:13:20;;;;;;;7.73;6.50;;;;;;;;;;5076817;28;20283;-79
2022/04/14 01:15:48;;;;;;;8.60;6.40;;;;;;;;;;5076424;28;20200;-79
2022/04/14 01:18:15;;;;;;;8.03;6.30;;;;;;;;;;5076727;28;20205;-79
2022/04/14 01:20:43;;;;;;;8.20;7.10;;;;;;;;;;5077151;28;20220;-79
2022/04/14 01:23:11;;;;;;;6.87;6.03;;;;;;;;;;5076900;28;20223;-79
2022/04/14 01:25:40;;;;;;;9.50;6.70;;;;;;;;;;5075907;28;20235;-78
2022/04/14 01:28:07;;;;;;;8.87;6.43;;;;;;;;;;5076790;28;20220;-79
2022/04/14 01:30:36;;;;;;;10.37;7.00;;;;;;;;;;5075868;28;20674;-79
2022/04/14 01:33:03;;;;;;;10.97;7.27;;;;;;;;;;5076568;28;20204;-79
2022/04/14 01:35:30;;;;;;;9.93;7.03;;;;;;;;;;5075769;28;20204;-78
2022/04/14 01:37:58;;;;;;;8.87;6.67;;;;;;;;;;5076589;28;20228;-79
2022/04/14 01:40:25;;;;;;;10.77;6.93;;;;;;;;;;5075645;28;20295;-79
2022/04/14 01:42:54;;;;;;;11.37;6.93;;;;;;;;;;5076383;28;20208;-78
2022/04/14 01:45:21;;;;;;;11.23;7.43;;;;;;;;;;5075929;28;20238;-79
2022/04/14 01:47:48;;;;;;;7.73;6.80;;;;;;;;;;5076260;28;20197;-79
2022/04/14 01:50:18;;;;;;;7.50;6.47;;;;;;;;;;5076538;28;20297;-79
2022/04/14 01:52:45;;;;;;;9.10;6.10;;;;;;;;;;5076287;28;20207;-79
2022/04/14 01:55:13;;;;;;;8.47;5.90;;;;;;;;;;5075850;28;20220;-79
2022/04/14 01:57:40;;;;;;;9.43;6.33;;;;;;;;;;5076123;28;20205;-79
2022/04/14 02:00:10;;;;;;;7.60;6.07;;;;;;;;;;5076388;28;20204;-79
2022/04/14 02:02:37;;;;;;;9.67;6.60;;;;;;;;;;5075737;28;20334;-79
2022/04/14 02:05:05;;;;;;;9.20;5.87;;;;;;;;;;5075378;28;20230;-79
2022/04/14 02:07:32;;;;;;;7.80;6.30;;;;;;;;;;5075851;28;20221;-78
2022/04/14 02:09:59;;;;;;;8.37;6.27;;;;;;;;;;5039796;28;20233;-79
2022/04/14 02:12:27;;;;;;;10.30;6.40;;;;;;;;;;5075375;28;20228;-79
2022/04/14 02:14:54;;;;;;;9.27;6.10;;;;;;;;;;5074463;28;20247;-77
2022/04/14 02:17:22;;;;;;;9.97;5.73;;;;;;;;;;5074178;28;20228;-77
2022/04/14 02:19:50;;;;;;;8.70;6.30;;;;;;;;;;5074625;28;20192;-78
2022/04/14 02:22:18;;;;;;;8.13;6.30;;;;;;;;;;5075457;28;20200;-78
2022/04/14 02:24:45;;;;;;;10.20;6.67;;;;;;;;;;5074385;28;20244;-78
2022/04/14 02:27:13;;;;;;;9.20;7.00;;;;;;;;;;5074265;28;20228;-79
2022/04/14 02:29:40;;;;;;;8.33;6.40;;;;;;;;;;5073299;28;20217;-79
2022/04/14 02:32:08;;;;;;;10.90;6.20;;;;;;;;;;5073820;28;20250;-79
2022/04/14 02:34:36;;;;;;;10.47;6.50;;;;;;;;;;5075205;28;20282;-78
2022/04/14 02:37:04;;;;;;;9.50;6.30;;;;;;;;;;5074270;28;20224;-79
2022/04/14 02:39:31;;;;;;;10.07;6.37;;;;;;;;;;5070687;28;20193;-78
2022/04/14 02:41:58;;;;;;;8.47;6.47;;;;;;;;;;5073261;28;20282;-79
2022/04/14 02:44:26;;;;;;;9.87;6.50;;;;;;;;;;5073303;28;20283;-78
2022/04/14 02:46:53;;;;;;;8.47;7.07;;;;;;;;;;5073573;28;20200;-78
2022/04/14 02:49:23;;;;;;;9.77;6.27;;;;;;;;;;5072590;28;20209;-79
2022/04/14 02:51:52;;;;;;;8.17;6.27;;;;;;;;;;5073652;28;20220;-78
2022/04/14 02:54:19;;;;;;;10.47;6.53;;;;;;;;;;5073211;28;20221;-77
2022/04/14 02:56:47;;;;;;;8.77;6.97;;;;;;;;;;5073320;28;20205;-78
2022/04/14 02:59:14;;;;;;;8.67;6.53;;;;;;;;;;5072807;28;20626;-77
2022/04/14 03:01:41;;;;;;;13.30;7.10;;;;;;;;;;5073595;28;20292;-77
2022/04/14 03:04:08;;;;;;;13.73;7.40;;;;;;;;;;5073170;28;20266;-78
2022/04/14 03:06:36;;;;;;;9.00;6.57;;;;;;;;;;5073042;28;20204;-78
2022/04/14 03:09:04;;;;;;;12.03;6.90;;;;;;;;;;5072978;28;20216;-79
2022/04/14 03:11:34;;;;;;;11.40;6.73;;;;;;;;;;5073241;28;20230;-78
2022/04/14 03:14:01;;;;;;;9.87;6.40;;;;;;;;;;5073024;28;20220;-78
2022/04/14 03:16:28;;;;;;;12.07;6.63;;;;;;;;;;5072977;28;20228;-78
2022/04/14 03:18:55;;;;;;;11.50;6.77;;;;;;;;;;5073157;28;20228;-78
2022/04/14 03:21:23;;;;;;;13.40;6.77;;;;;;;;;;5072913;28;20239;-78
2022/04/14 03:23:50;;;;;;;10.70;6.80;;;;;;;;;;5071853;28;20223;-78
2022/04/14 03:26:19;;;;;;;9.00;6.60;;;;;;;;;;5072459;28;20200;-79
2022/04/14 03:28:46;;;;;;;11.13;7.10;;;;;;;;;;5072299;28;20236;-78
2022/04/14 03:31:14;;;;;;;16.13;9.10;;;;;;;;;;5072514;28;20239;-77
2022/04/14 03:33:41;;;;;;;13.17;8.20;;;;;;;;;;5072649;28;20290;-78
2022/04/14 03:36:08;;;;;;;12.53;8.23;;;;;;;;;;5072568;28;20638;-78
2022/04/14 03:38:42;;;;;;;12.23;7.37;;;;;;;;;;5072529;28;20204;-78
2022/04/14 03:41:10;;;;;;;11.47;7.87;;;;;;;;;;5072284;28;20195;-77
2022/04/14 03:43:40;;;;;;;10.13;7.77;;;;;;;;;;5072212;28;20307;-79
2022/04/14 03:46:14;;;;;;;10.37;7.30;;;;;;;;;;5072610;28;20205;-78
2022/04/14 03:48:42;;;;;;;9.87;7.53;;;;;;;;;;5072290;28;20200;-78
2022/04/14 03:51:10;;;;;;;15.63;8.73;;;;;;;;;;5069880;28;20718;-78
2022/04/14 03:53:37;;;;;;;10.67;7.63;;;;;;;;;;5069832;28;20305;-78
2022/04/14 03:56:05;;;;;;;15.90;9.80;;;;;;;;;;5068005;28;20212;-78
2022/04/14 03:58:32;;;;;;;11.87;9.70;;;;;;;;;;5071364;28;20238;-79
2022/04/14 04:01:01;;;;;;;16.80;10.30;;;;;;;;;;5066814;28;20212;-77
2022/04/14 04:03:28;;;;;;;15.60;9.80;;;;;;;;;;5064200;28;20245;-77
2022/04/14 04:05:56;;;;;;;13.93;10.93;;;;;;;;;;5066160;28;20205;-80
2022/04/14 04:08:23;;;;;;;16.03;11.70;;;;;;;;;;5075578;28;20201;-77
2022/04/14 04:10:52;;;;;;;19.30;15.33;;;;;;;;;;5069994;28;20281;-79
2022/04/14 04:13:22;;;;;;;18.17;13.60;;;;;;;;;;5056457;28;20193;-79
2022/04/14 04:15:50;;;;;;;16.47;12.77;;;;;;;;;;5061688;28;20225;-78
2022/04/14 04:18:20;;;;;;;21.10;14.90;;;;;;;;;;5059617;28;20212;-78
2022/04/14 04:20:48;;;;;;;16.50;13.70;;;;;;;;;;5061813;28;20214;-78
2022/04/14 04:23:15;;;;;;;21.50;14.97;;;;;;;;;;5061455;28;20201;-78
2022/04/14 04:25:42;;;;;;;19.07;15.10;;;;;;;;;;5072452;28;20205;-77
2022/04/14 04:28:09;;;;;;;19.30;14.27;;;;;;;;;;5072797;28;20196;-77
2022/04/14 04:30:37;;;;;;;25.23;19.90;;;;;;;;;;5071985;28;20213;-78
2022/04/14 04:33:06;;;;;;;21.50;17.60;;;;;;;;;;5072268;28;20254;-77
2022/04/14 04:35:37;;;;;;;27.60;21.03;;;;;;;;;;5072625;28;20204;-78
2022/04/14 04:38:08;;;;;;;22.70;19.43;;;;;;;;;;5072668;28;20207;-78
2022/04/14 04:40:35;;;;;;;23.43;18.53;;;;;;;;;;5056062;28;20254;-78
2022/04/14 04:43:02;;;;;;;23.63;19.03;;;;;;;;;;5061396;28;20212;-78
2022/04/14 04:45:31;;;;;;;25.53;21.47;;;;;;;;;;5042778;28;20234;-78
2022/04/14 04:48:02;;;;;;;26.37;21.00;;;;;;;;;;5070138;28;20200;-78
2022/04/14 04:50:31;;;;;;;25.83;21.10;;;;;;;;;;5064248;28;20213;-78
2022/04/14 04:53:02;;;;;;;29.70;20.90;;;;;;;;;;5057941;28;20197;-78
2022/04/14 04:55:29;;;;;;;30.47;21.73;;;;;;;;;;5062397;28;20216;-78
2022/04/14 04:58:02;;;;;;;30.23;23.27;;;;;;;;;;5060851;28;20204;-78
2022/04/14 05:00:35;;;;;;;28.17;22.57;;;;;;;;;;5051840;28;20292;-78
2022/04/14 05:03:03;;;;;;;27.10;20.87;;;;;;;;;;5052922;28;20201;-78
2022/04/14 05:05:36;;;;;;;29.93;24.57;;;;;;;;;;5052696;28;20235;-79
2022/04/14 05:08:06;;;;;;;33.27;24.77;;;;;;;;;;5055601;28;20197;-78
2022/04/14 05:10:39;;;;;;;32.60;24.67;;;;;;;;;;5055101;28;20213;-79
2022/04/14 05:13:06;;;;;;;31.60;25.33;;;;;;;;;;5061947;28;20212;-78
2022/04/14 05:15:35;;;;;;;29.57;23.90;;;;;;;;;;5066887;28;20203;-78
2022/04/14 05:18:03;;;;;;;33.20;25.60;;;;;;;;;;5066956;28;20201;-85
2022/04/14 05:20:31;;;;;;;34.43;25.97;;;;;;;;;;5072463;28;20201;-77
2022/04/14 05:22:58;;;;;;;38.37;29.40;;;;;;;;;;5068252;28;20246;-77
2022/04/14 05:25:29;;;;;;;33.53;27.23;;;;;;;;;;5065595;28;20215;-77
2022/04/14 05:27:56;;;;;;;31.97;25.57;;;;;;;;;;5062300;28;20201;-77
2022/04/14 05:30:23;;;;;;;36.90;26.93;;;;;;;;;;5064462;28;20698;-78
2022/04/14 05:32:51;;;;;;;32.73;27.77;;;;;;;;;;5051765;28;20228;-78
2022/04/14 05:35:18;;;;;;;37.00;29.40;;;;;;;;;;5051465;28;20263;-80
2022/04/14 05:37:45;;;;;;;33.00;28.13;;;;;;;;;;5051248;28;20211;-79
2022/04/14 05:40:13;;;;;;;38.17;31.57;;;;;;;;;;5069420;28;20265;-79
2022/04/14 05:42:46;;;;;;;37.07;31.27;;;;;;;;;;5060134;28;20733;-80
2022/04/14 05:45:15;;;;;;;34.13;30.37;;;;;;;;;;5069232;28;20212;-80
2022/04/14 05:47:42;;;;;;;42.33;31.73;;;;;;;;;;5060169;28;20207;-77
2022/04/14 05:50:10;;;;;;;36.67;30.53;;;;;;;;;;5054504;28;20217;-78
2022/04/14 05:52:39;;;;;;;35.27;30.20;;;;;;;;;;5054745;28;20501;-78
2022/04/14 05:55:07;;;;;;;36.80;31.37;;;;;;;;;;5054669;28;20225;-77
2022/04/14 05:57:34;;;;;;;35.70;31.00;;;;;;;;;;5055518;28;20319;-81
2022/04/14 06:00:05;;;;;;;38.07;31.27;;;;;;;;;;5060166;28;20205;-78
2022/04/14 06:02:32;;;;;;;38.53;31.83;;;;;;;;;;5055914;28;20266;-78
2022/04/14 06:05:00;;;;;;;36.47;29.83;;;;;;;;;;5055761;28;20221;-77
2022/04/14 06:07:27;;;;;;;34.50;30.73;;;;;;;;;;5067206;28;20209;-78
2022/04/14 06:09:54;;;;;;;31.97;28.77;;;;;;;;;;5067984;28;20545;-77
2022/04/14 06:12:24;;;;;;;35.67;31.30;;;;;;;;;;5074427;28;20196;-77
2022/04/14 06:14:54;;;;;;;35.20;29.77;;;;;;;;;;5075408;28;20224;-75
2022/04/14 06:17:28;;;;;;;33.60;29.77;;;;;;;;;;5074486;28;20227;-75
2022/04/14 06:20:03;;;;;;;32.53;27.97;;;;;;;;;;5072982;28;20280;-76
2022/04/14 06:22:33;;;;;;;31.60;26.83;;;;;;;;;;5068814;28;20211;-76
2022/04/14 06:25:03;;;;;;;32.33;27.57;;;;;;;;;;5063554;28;20239;-77
2022/04/14 06:27:31;;;;;;;31.00;27.10;;;;;;;;;;5057838;28;20197;-77
2022/04/14 06:29:58;;;;;;;29.83;26.30;;;;;;;;;;5058898;28;20224;-76
2022/04/14 06:32:30;;;;;;;29.63;26.50;;;;;;;;;;5059501;28;20193;-76
2022/04/14 06:34:57;;;;;;;30.37;26.57;;;;;;;;;;5108501;22;20307;-78
2022/04/14 06:37:24;;;;;;;32.53;25.93;;;;;;;;;;5106023;28;20199;-80
2022/04/14 06:39:52;;;;;;;30.57;27.30;;;;;;;;;;5101550;28;20255;-78
2022/04/14 06:42:22;;;;;;;31.73;26.80;;;;;;;;;;5105065;28;20231;-77
2022/04/14 06:44:50;;;;;;;29.03;26.00;;;;;;;;;;5103506;28;20314;-78
2022/04/14 06:47:17;;;;;;;30.30;26.50;;;;;;;;;;5106841;28;20236;-80
2022/04/14 06:49:46;;;;;;;27.80;24.93;;;;;;;;;;5103087;28;20299;-80
2022/04/14 06:52:13;;;;;;;29.30;25.77;;;;;;;;;;5104591;28;20273;-79
2022/04/14 06:54:40;;;;;;;27.37;24.43;;;;;;;;;;5110581;28;20227;-79
2022/04/14 06:57:08;;;;;;;28.43;25.47;;;;;;;;;;5117904;28;20275;-79
2022/04/14 06:59:35;;;;;;;30.17;25.10;;;;;;;;;;5118512;28;20210;-78
2022/04/14 07:02:02;;;;;;;28.33;25.03;;;;;;;;;;5118452;28;20195;-78
2022/04/14 07:04:30;;;;;;;27.17;24.40;;;;;;;;;;5119133;28;20211;-78
2022/04/14 07:06:58;;;;;;;27.27;24.30;;;;;;;;;;5122909;28;20267;-79
2022/04/14 07:09:28;;;;;;;29.83;24.30;;;;;;;;;;5120806;28;20192;-79
2022/04/14 07:11:59;;;;;;;26.70;23.53;;;;;;;;;;5119290;28;20219;-79
2022/04/14 07:14:27;;;;;;;27.13;24.23;;;;;;;;;;5148743;22;20220;-81
2022/04/14 07:16:55;;;;;;;26.47;23.60;;;;;;;;;;5103506;28;20231;-78
2022/04/14 07:19:22;;;;;;;28.60;23.97;;;;;;;;;;5098806;28;20203;-79
2022/04/14 07:21:49;;;;;;;26.43;23.60;;;;;;;;;;5080456;28;20223;-77
2022/04/14 07:24:18;;;;;;;25.53;22.70;;;;;;;;;;5099159;28;20246;-79
2022/04/14 07:26:47;;;;;;;26.38;23.45;;;;;;;;;;5099136;28;20203;-78
2022/04/14 07:29:14;;;;;;;25.40;22.80;;;;;;;;;;5078234;28;20193;-77
2022/04/14 07:31:42;;;;;;;23.80;21.43;;;;;;;;;;5087955;28;20232;-80
2022/04/14 07:34:11;;;;;;;25.10;22.33;;;;;;;;;;5084961;28;20216;-80
2022/04/14 07:36:38;;;;;;;23.83;21.42;;;;;;;;;;5074185;28;20200;-79
2022/04/14 07:39:06;;;;;;;24.70;22.08;;;;;;;;;;5079213;28;20197;-79
2022/04/14 07:41:35;;;;;;;25.98;23.08;;;;;;;;;;5071431;28;20269;-78
2022/04/14 07:44:04;;;;;;;24.67;22.00;;;;;;;;;;5065017;28;20196;-78
2022/04/14 07:46:31;;;;;;;25.20;22.23;;;;;;;;;;5066160;28;20217;-79
2022/04/14 07:49:10;;;;;;;29.70;22.95;;;;;;;;;;5066210;28;20215;-85
2022/04/14 07:51:48;;;;;;;23.02;20.65;;;;;;;;;;5067012;28;20227;-87
2022/04/14 07:54:15;;;;;;;24.60;21.60;;;;;;;;;;5072158;28;20352;-78
2022/04/14 07:56:44;;;;;;;25.45;22.88;;;;;;;;;;5063278;28;20201;-78
2022/04/14 07:59:12;;;;;;;23.40;21.02;;;;;;;;;;5073172;28;20658;-78
2022/04/14 08:01:39;;;;;;;24.88;21.63;;;;;;;;;;5094919;28;20218;-77
2022/04/14 08:04:06;;;;;;;23.52;20.88;;;;;;;;;;5077318;28;20201;-77
2022/04/14 08:06:34;;;;;;;24.35;21.83;;;;;;;;;;5072189;28;20201;-77
2022/04/14 08:09:04;;;;;;;24.60;21.95;;;;;;;;;;5082749;28;20214;-78
2022/04/14 08:11:32;;;;;;;22.73;20.42;;;;;;;;;;5088529;28;20212;-77
2022/04/14 08:14:00;;;;;;;22.92;20.65;;;;;;;;;;5067791;28;20269;-77
2022/04/14 08:16:28;;;;;;;25.02;21.08;;;;;;;;;;5066834;28;20221;-79
